sensor_id;sensor_type;location;lat;lon;timestamp;temperature;humidity
61092;DHT22;46975;51.898;11.444;2022-09-09T00:04:23;15.70;99.90
61092;DHT22;46975;51.898;11.444;2022-09-09T00:07:01;15.80;99.90
61092;DHT22;46975;51.898;11.444;2022-09-09T00:09:31;15.70;99.90
61092;DHT22;46975;51.898;11.444;2022-09-09T00:12:08;15.60;99.90
61092;DHT22;46975;51.898;11.444;2022-09-09T00:14:54;15.60;99.90
61092;DHT22;46975;51.898;11.444;2022-09-09T00:17:43;15.60;99.90
61092;DHT22;46975;51.898;11.444;2022-09-09T00:20:35;15.60;99.90
61092;DHT22;46975;51.898;11.444;2022-09-09T00:23:30;15.70;99.90
61092;DHT22;46975;51.898;11.444;2022-09-09T00:26:22;15.70;99.90
61092;DHT22;46975;51.898;11.444;2022-09-09T00:29:05;15.60;99.90
61092;DHT22;46975;51.898;11.444;2022-09-09T00:31:35;15.60;99.90
61092;DHT22;46975;51.898;11.444;2022-09-09T00:34:15;15.60;99.90
61092;DHT22;46975;51.898;11.444;2022-09-09T00:36:44;15.50;99.90
61092;DHT22;46975;51.898;11.444;2022-09-09T00:44:38;15.30;99.90
61092;DHT22;46975;51.898;11.444;2022-09-09T00:57:34;15.00;99.90
61092;DHT22;46975;51.898;11.444;2022-09-09T01:11:26;14.70;99.90
61092;DHT22;46975;51.898;11.444;2022-09-09T01:14:10;14.60;99.90
61092;DHT22;46975;51.898;11.444;2022-09-09T01:16:38;14.60;99.90
61092;DHT22;46975;51.898;11.444;2022-09-09T01:19:13;14.70;99.90
61092;DHT22;46975;51.898;11.444;2022-09-09T01:22:01;14.60;99.90
61092;DHT22;46975;51.898;11.444;2022-09-09T01:27:02;14.60;99.90
61092;DHT22;46975;51.898;11.444;2022-09-09T01:29:29;14.70;99.90
61092;DHT22;46975;51.898;11.444;2022-09-09T01:31:57;14.90;99.90
61092;DHT22;46975;51.898;11.444;2022-09-09T01:34:24;15.00;99.90
61092;DHT22;46975;51.898;11.444;2022-09-09T01:37:03;15.10;99.90
61092;DHT22;46975;51.898;11.444;2022-09-09T01:39:35;15.20;99.90
61092;DHT22;46975;51.898;11.444;2022-09-09T01:42:02;15.20;99.90
61092;DHT22;46975;51.898;11.444;2022-09-09T01:44:29;15.40;99.90
61092;DHT22;46975;51.898;11.444;2022-09-09T01:46:55;15.40;99.90
61092;DHT22;46975;51.898;11.444;2022-09-09T01:49:21;15.40;99.90
61092;DHT22;46975;51.898;11.444;2022-09-09T01:51:51;15.40;99.90
61092;DHT22;46975;51.898;11.444;2022-09-09T01:54:18;15.40;99.90
61092;DHT22;46975;51.898;11.444;2022-09-09T02:02:36;15.30;99.90
61092;DHT22;46975;51.898;11.444;2022-09-09T02:07:41;15.20;99.90
61092;DHT22;46975;51.898;11.444;2022-09-09T02:10:30;15.10;99.90
61092;DHT22;46975;51.898;11.444;2022-09-09T02:13:12;15.00;99.90
61092;DHT22;46975;51.898;11.444;2022-09-09T02:18:12;14.80;99.90
61092;DHT22;46975;51.898;11.444;2022-09-09T02:20:39;14.80;99.90
61092;DHT22;46975;51.898;11.444;2022-09-09T02:23:07;14.70;99.90
61092;DHT22;46975;51.898;11.444;2022-09-09T02:25:37;14.60;99.90
61092;DHT22;46975;51.898;11.444;2022-09-09T02:28:06;14.60;99.90
61092;DHT22;46975;51.898;11.444;2022-09-09T02:30:33;14.50;99.90
61092;DHT22;46975;51.898;11.444;2022-09-09T02:33:02;14.50;99.90
61092;DHT22;46975;51.898;11.444;2022-09-09T02:35:30;14.40;99.90
61092;DHT22;46975;51.898;11.444;2022-09-09T02:38:01;14.40;99.90
61092;DHT22;46975;51.898;11.444;2022-09-09T02:40:28;14.30;99.90
61092;DHT22;46975;51.898;11.444;2022-09-09T02:42:54;14.30;99.90
61092;DHT22;46975;51.898;11.444;2022-09-09T02:45:24;14.30;99.90
61092;DHT22;46975;51.898;11.444;2022-09-09T02:51:32;14.30;99.90
61092;DHT22;46975;51.898;11.444;2022-09-09T02:56:42;14.40;99.90
61092;DHT22;46975;51.898;11.444;2022-09-09T02:59:10;14.50;99.90
61092;DHT22;46975;51.898;11.444;2022-09-09T03:01:37;14.60;99.90
61092;DHT22;46975;51.898;11.444;2022-09-09T03:04:05;14.70;99.90
61092;DHT22;46975;51.898;11.444;2022-09-09T03:06:31;14.60;99.90
61092;DHT22;46975;51.898;11.444;2022-09-09T03:08:56;14.60;99.90
61092;DHT22;46975;51.898;11.444;2022-09-09T03:11:26;14.70;99.90
61092;DHT22;46975;51.898;11.444;2022-09-09T03:13:53;14.80;99.90
61092;DHT22;46975;51.898;11.444;2022-09-09T03:16:24;14.80;99.90
61092;DHT22;46975;51.898;11.444;2022-09-09T03:18:49;14.90;99.90
61092;DHT22;46975;51.898;11.444;2022-09-09T03:21:15;15.00;99.90
61092;DHT22;46975;51.898;11.444;2022-09-09T03:23:41;15.10;99.90
61092;DHT22;46975;51.898;11.444;2022-09-09T03:26:07;15.10;99.90
61092;DHT22;46975;51.898;11.444;2022-09-09T03:28:33;15.10;99.90
61092;DHT22;46975;51.898;11.444;2022-09-09T03:31:03;15.20;99.90
61092;DHT22;46975;51.898;11.444;2022-09-09T03:33:29;15.10;99.90
61092;DHT22;46975;51.898;11.444;2022-09-09T03:35:55;15.20;99.90
61092;DHT22;46975;51.898;11.444;2022-09-09T03:38:23;15.20;99.90
61092;DHT22;46975;51.898;11.444;2022-09-09T03:40:50;15.20;99.90
61092;DHT22;46975;51.898;11.444;2022-09-09T03:43:16;15.30;99.90
61092;DHT22;46975;51.898;11.444;2022-09-09T03:45:46;15.40;99.90
61092;DHT22;46975;51.898;11.444;2022-09-09T03:48:17;15.40;99.90
61092;DHT22;46975;51.898;11.444;2022-09-09T03:50:46;15.50;99.90
61092;DHT22;46975;51.898;11.444;2022-09-09T03:53:14;15.50;99.90
61092;DHT22;46975;51.898;11.444;2022-09-09T03:55:43;15.50;99.90
61092;DHT22;46975;51.898;11.444;2022-09-09T03:58:08;15.40;99.90
61092;DHT22;46975;51.898;11.444;2022-09-09T04:00:34;15.40;99.90
61092;DHT22;46975;51.898;11.444;2022-09-09T04:03:00;15.40;99.90
61092;DHT22;46975;51.898;11.444;2022-09-09T04:05:25;15.40;99.90
61092;DHT22;46975;51.898;11.444;2022-09-09T04:07:51;15.40;99.90
61092;DHT22;46975;51.898;11.444;2022-09-09T04:10:18;15.40;99.90
61092;DHT22;46975;51.898;11.444;2022-09-09T04:12:44;15.40;99.90
61092;DHT22;46975;51.898;11.444;2022-09-09T04:15:10;15.40;99.90
61092;DHT22;46975;51.898;11.444;2022-09-09T04:17:36;15.40;99.90
61092;DHT22;46975;51.898;11.444;2022-09-09T04:20:02;15.30;99.90
61092;DHT22;46975;51.898;11.444;2022-09-09T04:22:28;15.30;99.90
61092;DHT22;46975;51.898;11.444;2022-09-09T04:24:53;15.30;99.90
61092;DHT22;46975;51.898;11.444;2022-09-09T04:27:19;15.30;99.90
61092;DHT22;46975;51.898;11.444;2022-09-09T04:29:44;15.20;99.90
61092;DHT22;46975;51.898;11.444;2022-09-09T04:32:10;15.20;99.90
61092;DHT22;46975;51.898;11.444;2022-09-09T04:34:37;15.20;99.90
61092;DHT22;46975;51.898;11.444;2022-09-09T04:37:02;15.30;99.90
61092;DHT22;46975;51.898;11.444;2022-09-09T04:39:28;15.30;99.90
61092;DHT22;46975;51.898;11.444;2022-09-09T04:41:54;15.50;99.90
61092;DHT22;46975;51.898;11.444;2022-09-09T04:44:19;15.50;99.90
61092;DHT22;46975;51.898;11.444;2022-09-09T04:46:45;15.60;99.90
61092;DHT22;46975;51.898;11.444;2022-09-09T04:49:11;15.60;99.90
61092;DHT22;46975;51.898;11.444;2022-09-09T04:51:36;15.70;99.90
61092;DHT22;46975;51.898;11.444;2022-09-09T04:54:02;15.70;99.90
61092;DHT22;46975;51.898;11.444;2022-09-09T04:56:28;15.70;99.90
61092;DHT22;46975;51.898;11.444;2022-09-09T04:58:53;15.70;99.90
61092;DHT22;46975;51.898;11.444;2022-09-09T05:01:21;15.70;99.90
61092;DHT22;46975;51.898;11.444;2022-09-09T05:03:47;15.70;99.90
61092;DHT22;46975;51.898;11.444;2022-09-09T05:06:16;15.80;99.90
61092;DHT22;46975;51.898;11.444;2022-09-09T05:08:43;15.80;99.90
61092;DHT22;46975;51.898;11.444;2022-09-09T05:13:41;15.90;99.90
61092;DHT22;46975;51.898;11.444;2022-09-09T05:16:07;15.90;99.90
61092;DHT22;46975;51.898;11.444;2022-09-09T05:18:37;16.00;99.90
61092;DHT22;46975;51.898;11.444;2022-09-09T05:21:02;15.90;99.90
61092;DHT22;46975;51.898;11.444;2022-09-09T05:23:28;16.00;99.90
61092;DHT22;46975;51.898;11.444;2022-09-09T05:25:58;16.00;99.90
61092;DHT22;46975;51.898;11.444;2022-09-09T05:28:27;16.00;99.90
61092;DHT22;46975;51.898;11.444;2022-09-09T05:31:04;16.10;99.90
61092;DHT22;46975;51.898;11.444;2022-09-09T05:33:31;16.10;99.90
61092;DHT22;46975;51.898;11.444;2022-09-09T05:35:58;16.10;99.90
61092;DHT22;46975;51.898;11.444;2022-09-09T05:38:24;16.20;99.90
61092;DHT22;46975;51.898;11.444;2022-09-09T05:40:51;16.20;99.90
61092;DHT22;46975;51.898;11.444;2022-09-09T05:43:18;16.20;99.90
61092;DHT22;46975;51.898;11.444;2022-09-09T05:45:48;16.30;99.90
61092;DHT22;46975;51.898;11.444;2022-09-09T05:48:14;16.30;99.90
61092;DHT22;46975;51.898;11.444;2022-09-09T05:50:41;16.40;99.90
61092;DHT22;46975;51.898;11.444;2022-09-09T05:53:08;16.40;99.90
61092;DHT22;46975;51.898;11.444;2022-09-09T05:55:34;16.40;99.90
61092;DHT22;46975;51.898;11.444;2022-09-09T05:58:00;16.50;99.90
61092;DHT22;46975;51.898;11.444;2022-09-09T06:00:26;16.50;99.90
61092;DHT22;46975;51.898;11.444;2022-09-09T06:02:53;16.60;99.90
61092;DHT22;46975;51.898;11.444;2022-09-09T06:05:19;16.60;99.90
61092;DHT22;46975;51.898;11.444;2022-09-09T06:07:45;16.70;99.90
61092;DHT22;46975;51.898;11.444;2022-09-09T06:10:11;16.70;99.90
61092;DHT22;46975;51.898;11.444;2022-09-09T06:12:39;16.80;99.90
61092;DHT22;46975;51.898;11.444;2022-09-09T06:15:05;16.80;99.90
61092;DHT22;46975;51.898;11.444;2022-09-09T06:17:31;16.90;99.90
61092;DHT22;46975;51.898;11.444;2022-09-09T06:19:57;16.90;99.90
61092;DHT22;46975;51.898;11.444;2022-09-09T06:22:23;16.90;99.90
61092;DHT22;46975;51.898;11.444;2022-09-09T06:24:48;16.90;99.90
61092;DHT22;46975;51.898;11.444;2022-09-09T06:27:14;16.90;99.90
61092;DHT22;46975;51.898;11.444;2022-09-09T06:29:39;17.00;99.90
61092;DHT22;46975;51.898;11.444;2022-09-09T06:32:05;16.90;99.90
61092;DHT22;46975;51.898;11.444;2022-09-09T06:34:30;16.80;99.90
61092;DHT22;46975;51.898;11.444;2022-09-09T06:36:56;16.70;99.90
61092;DHT22;46975;51.898;11.444;2022-09-09T06:39:23;16.70;99.90
61092;DHT22;46975;51.898;11.444;2022-09-09T06:41:49;16.80;99.90
61092;DHT22;46975;51.898;11.444;2022-09-09T06:44:15;17.00;99.90
61092;DHT22;46975;51.898;11.444;2022-09-09T06:46:41;17.10;99.90
61092;DHT22;46975;51.898;11.444;2022-09-09T06:49:08;17.30;99.90
61092;DHT22;46975;51.898;11.444;2022-09-09T06:51:35;17.60;99.90
61092;DHT22;46975;51.898;11.444;2022-09-09T06:54:02;17.70;99.90
61092;DHT22;46975;51.898;11.444;2022-09-09T06:56:30;17.70;99.90
61092;DHT22;46975;51.898;11.444;2022-09-09T06:58:59;17.70;99.90
61092;DHT22;46975;51.898;11.444;2022-09-09T07:01:31;17.60;99.90
61092;DHT22;46975;51.898;11.444;2022-09-09T07:03:58;17.70;99.90
61092;DHT22;46975;51.898;11.444;2022-09-09T07:06:29;17.70;99.90
61092;DHT22;46975;51.898;11.444;2022-09-09T07:08:57;17.70;99.90
61092;DHT22;46975;51.898;11.444;2022-09-09T07:11:26;17.60;99.90
61092;DHT22;46975;51.898;11.444;2022-09-09T07:13:52;17.50;99.90
61092;DHT22;46975;51.898;11.444;2022-09-09T07:16:19;17.50;99.90
61092;DHT22;46975;51.898;11.444;2022-09-09T07:18:46;17.70;99.90
61092;DHT22;46975;51.898;11.444;2022-09-09T07:21:13;19.40;99.90
61092;DHT22;46975;51.898;11.444;2022-09-09T07:23:40;19.50;99.90
61092;DHT22;46975;51.898;11.444;2022-09-09T07:26:13;19.80;99.90
61092;DHT22;46975;51.898;11.444;2022-09-09T07:28:39;21.70;99.90
61092;DHT22;46975;51.898;11.444;2022-09-09T07:31:06;21.80;99.90
61092;DHT22;46975;51.898;11.444;2022-09-09T07:33:34;20.70;99.90
61092;DHT22;46975;51.898;11.444;2022-09-09T07:36:09;19.60;99.90
61092;DHT22;46975;51.898;11.444;2022-09-09T07:38:43;19.00;99.90
61092;DHT22;46975;51.898;11.444;2022-09-09T07:41:15;18.80;99.90
61092;DHT22;46975;51.898;11.444;2022-09-09T07:43:42;18.70;99.90
61092;DHT22;46975;51.898;11.444;2022-09-09T07:46:10;18.80;99.90
61092;DHT22;46975;51.898;11.444;2022-09-09T07:48:37;19.70;99.90
61092;DHT22;46975;51.898;11.444;2022-09-09T07:53:31;21.60;99.90
61092;DHT22;46975;51.898;11.444;2022-09-09T07:56:03;22.60;99.90
61092;DHT22;46975;51.898;11.444;2022-09-09T07:58:29;22.10;99.90
61092;DHT22;46975;51.898;11.444;2022-09-09T08:00:54;20.80;99.90
61092;DHT22;46975;51.898;11.444;2022-09-09T08:03:20;20.10;99.90
61092;DHT22;46975;51.898;11.444;2022-09-09T08:05:47;19.90;99.90
61092;DHT22;46975;51.898;11.444;2022-09-09T08:08:12;20.00;99.90
61092;DHT22;46975;51.898;11.444;2022-09-09T08:10:39;19.90;99.90
61092;DHT22;46975;51.898;11.444;2022-09-09T08:13:05;19.70;99.90
61092;DHT22;46975;51.898;11.444;2022-09-09T08:15:31;19.60;99.90
61092;DHT22;46975;51.898;11.444;2022-09-09T08:17:57;19.70;99.90
61092;DHT22;46975;51.898;11.444;2022-09-09T08:20:23;19.90;99.90
61092;DHT22;46975;51.898;11.444;2022-09-09T08:22:48;20.00;99.90
61092;DHT22;46975;51.898;11.444;2022-09-09T08:25:15;20.20;99.90
61092;DHT22;46975;51.898;11.444;2022-09-09T08:27:41;20.10;99.90
61092;DHT22;46975;51.898;11.444;2022-09-09T08:30:07;19.80;99.90
61092;DHT22;46975;51.898;11.444;2022-09-09T08:32:33;19.60;99.90
61092;DHT22;46975;51.898;11.444;2022-09-09T08:35:00;19.40;99.90
61092;DHT22;46975;51.898;11.444;2022-09-09T08:37:26;19.30;99.90
61092;DHT22;46975;51.898;11.444;2022-09-09T08:39:51;19.20;99.90
61092;DHT22;46975;51.898;11.444;2022-09-09T08:50:17;19.70;99.90
61092;DHT22;46975;51.898;11.444;2022-09-09T08:55:37;20.10;99.90
61092;DHT22;46975;51.898;11.444;2022-09-09T08:58:21;20.20;99.90
61092;DHT22;46975;51.898;11.444;2022-09-09T09:09:01;20.40;99.90
61092;DHT22;46975;51.898;11.444;2022-09-09T09:11:47;20.40;99.90
61092;DHT22;46975;51.898;11.444;2022-09-09T09:14:23;20.20;99.90
61092;DHT22;46975;51.898;11.444;2022-09-09T09:17:11;20.30;99.90
61092;DHT22;46975;51.898;11.444;2022-09-09T09:19:39;20.40;99.90
61092;DHT22;46975;51.898;11.444;2022-09-09T09:25:17;20.40;99.90
61092;DHT22;46975;51.898;11.444;2022-09-09T09:27:47;20.30;99.90
61092;DHT22;46975;51.898;11.444;2022-09-09T09:30:20;20.40;99.90
61092;DHT22;46975;51.898;11.444;2022-09-09T09:35:41;20.80;99.90
61092;DHT22;46975;51.898;11.444;2022-09-09T09:38:21;21.10;99.90
61092;DHT22;46975;51.898;11.444;2022-09-09T09:40:58;21.40;99.90
61092;DHT22;46975;51.898;11.444;2022-09-09T09:43:32;21.50;99.90
61092;DHT22;46975;51.898;11.444;2022-09-09T09:45:58;21.40;99.90
61092;DHT22;46975;51.898;11.444;2022-09-09T09:48:25;21.70;99.90
61092;DHT22;46975;51.898;11.444;2022-09-09T09:50:58;21.80;99.90
61092;DHT22;46975;51.898;11.444;2022-09-09T09:53:32;21.80;99.90
61092;DHT22;46975;51.898;11.444;2022-09-09T09:56:04;21.70;99.90
61092;DHT22;46975;51.898;11.444;2022-09-09T09:58:37;21.80;99.90
61092;DHT22;46975;51.898;11.444;2022-09-09T10:01:04;22.00;99.90
61092;DHT22;46975;51.898;11.444;2022-09-09T10:03:32;22.20;99.90
61092;DHT22;46975;51.898;11.444;2022-09-09T10:05:58;22.30;99.90
61092;DHT22;46975;51.898;11.444;2022-09-09T10:08:25;22.10;99.90
61092;DHT22;46975;51.898;11.444;2022-09-09T10:19:32;21.70;99.90
61092;DHT22;46975;51.898;11.444;2022-09-09T10:22:15;21.70;99.90
61092;DHT22;46975;51.898;11.444;2022-09-09T10:24:58;21.70;99.90
61092;DHT22;46975;51.898;11.444;2022-09-09T10:30:19;21.50;99.90
61092;DHT22;46975;51.898;11.444;2022-09-09T10:32:49;21.60;99.90
61092;DHT22;46975;51.898;11.444;2022-09-09T10:35:31;21.70;99.90
61092;DHT22;46975;51.898;11.444;2022-09-09T10:38:20;21.70;99.90
61092;DHT22;46975;51.898;11.444;2022-09-09T10:41:06;21.70;99.90
61092;DHT22;46975;51.898;11.444;2022-09-09T10:52:26;21.60;99.90
61092;DHT22;46975;51.898;11.444;2022-09-09T10:54:58;21.60;99.90
61092;DHT22;46975;51.898;11.444;2022-09-09T10:57:38;21.70;99.90
61092;DHT22;46975;51.898;11.444;2022-09-09T11:02:41;21.70;99.90
61092;DHT22;46975;51.898;11.444;2022-09-09T11:05:20;21.80;99.90
61092;DHT22;46975;51.898;11.444;2022-09-09T11:08:04;21.70;99.90
61092;DHT22;46975;51.898;11.444;2022-09-09T11:13:36;21.70;99.90
61092;DHT22;46975;51.898;11.444;2022-09-09T11:18:41;21.50;99.90
61092;DHT22;46975;51.898;11.444;2022-09-09T11:21:19;21.40;99.90
61092;DHT22;46975;51.898;11.444;2022-09-09T11:23:59;21.40;99.90
61092;DHT22;46975;51.898;11.444;2022-09-09T11:26:33;21.40;99.90
61092;DHT22;46975;51.898;11.444;2022-09-09T11:29:19;21.40;99.90
61092;DHT22;46975;51.898;11.444;2022-09-09T11:40:46;23.70;99.90
61092;DHT22;46975;51.898;11.444;2022-09-09T11:43:46;23.80;99.90
61092;DHT22;46975;51.898;11.444;2022-09-09T11:46:15;23.70;99.90
61092;DHT22;46975;51.898;11.444;2022-09-09T11:48:45;23.60;99.90
61092;DHT22;46975;51.898;11.444;2022-09-09T11:53:51;22.30;99.90
61092;DHT22;46975;51.898;11.444;2022-09-09T11:56:45;22.00;99.90
61092;DHT22;46975;51.898;11.444;2022-09-09T11:59:32;21.80;99.90
61092;DHT22;46975;51.898;11.444;2022-09-09T12:02:03;22.00;99.90
61092;DHT22;46975;51.898;11.444;2022-09-09T12:04:38;22.00;99.90
61092;DHT22;46975;51.898;11.444;2022-09-09T12:09:56;22.00;99.90
61092;DHT22;46975;51.898;11.444;2022-09-09T12:12:30;22.70;99.90
61092;DHT22;46975;51.898;11.444;2022-09-09T12:15:30;23.50;99.90
61092;DHT22;46975;51.898;11.444;2022-09-09T12:17:51;23.50;99.90
61092;DHT22;46975;51.898;11.444;2022-09-09T12:20:34;24.10;99.90
61092;DHT22;46975;51.898;11.444;2022-09-09T12:23:17;24.10;99.90
61092;DHT22;46975;51.898;11.444;2022-09-09T12:28:15;23.70;99.90
61092;DHT22;46975;51.898;11.444;2022-09-09T12:33:34;23.40;99.90
61092;DHT22;46975;51.898;11.444;2022-09-09T12:36:01;24.00;99.90
61092;DHT22;46975;51.898;11.444;2022-09-09T12:38:37;24.70;99.90
61092;DHT22;46975;51.898;11.444;2022-09-09T12:41:04;24.70;99.90
61092;DHT22;46975;51.898;11.444;2022-09-09T12:43:29;24.70;99.90
61092;DHT22;46975;51.898;11.444;2022-09-09T12:46:01;24.90;99.90
61092;DHT22;46975;51.898;11.444;2022-09-09T12:48:37;25.10;99.90
61092;DHT22;46975;51.898;11.444;2022-09-09T12:51:05;25.10;99.90
61092;DHT22;46975;51.898;11.444;2022-09-09T12:53:35;25.20;99.90
61092;DHT22;46975;51.898;11.444;2022-09-09T12:56:06;25.10;99.90
61092;DHT22;46975;51.898;11.444;2022-09-09T12:58:35;24.60;99.90
61092;DHT22;46975;51.898;11.444;2022-09-09T13:01:02;24.30;99.90
61092;DHT22;46975;51.898;11.444;2022-09-09T13:03:32;25.00;99.90
61092;DHT22;46975;51.898;11.444;2022-09-09T13:06:11;25.00;99.90
61092;DHT22;46975;51.898;11.444;2022-09-09T13:08:37;24.10;99.90
61092;DHT22;46975;51.898;11.444;2022-09-09T13:11:07;24.10;99.90
61092;DHT22;46975;51.898;11.444;2022-09-09T13:13:40;25.00;99.90
61092;DHT22;46975;51.898;11.444;2022-09-09T13:16:18;25.50;99.90
61092;DHT22;46975;51.898;11.444;2022-09-09T13:18:44;25.50;99.90
61092;DHT22;46975;51.898;11.444;2022-09-09T13:21:11;25.70;99.90
61092;DHT22;46975;51.898;11.444;2022-09-09T13:23:37;26.40;99.90
61092;DHT22;46975;51.898;11.444;2022-09-09T13:26:05;26.50;99.90
61092;DHT22;46975;51.898;11.444;2022-09-09T13:28:33;25.90;99.90
61092;DHT22;46975;51.898;11.444;2022-09-09T13:31:02;25.60;99.90
61092;DHT22;46975;51.898;11.444;2022-09-09T13:33:36;24.80;99.90
61092;DHT22;46975;51.898;11.444;2022-09-09T13:36:07;24.10;99.90
61092;DHT22;46975;51.898;11.444;2022-09-09T13:41:21;23.60;99.90
61092;DHT22;46975;51.898;11.444;2022-09-09T13:43:48;23.50;99.90
61092;DHT22;46975;51.898;11.444;2022-09-09T13:46:40;23.20;99.90
61092;DHT22;46975;51.898;11.444;2022-09-09T13:51:46;22.90;99.90
61092;DHT22;46975;51.898;11.444;2022-09-09T13:54:16;22.80;99.90
61092;DHT22;46975;51.898;11.444;2022-09-09T13:56:42;22.70;99.90
61092;DHT22;46975;51.898;11.444;2022-09-09T13:59:16;22.90;99.90
61092;DHT22;46975;51.898;11.444;2022-09-09T14:01:44;24.00;99.90
61092;DHT22;46975;51.898;11.444;2022-09-09T14:04:10;24.80;99.90
61092;DHT22;46975;51.898;11.444;2022-09-09T14:06:36;25.20;99.90
61092;DHT22;46975;51.898;11.444;2022-09-09T14:09:04;25.50;99.90
61092;DHT22;46975;51.898;11.444;2022-09-09T14:11:30;25.70;99.90
61092;DHT22;46975;51.898;11.444;2022-09-09T14:13:55;24.80;99.90
61092;DHT22;46975;51.898;11.444;2022-09-09T14:16:21;24.00;99.90
61092;DHT22;46975;51.898;11.444;2022-09-09T14:18:47;23.90;99.90
61092;DHT22;46975;51.898;11.444;2022-09-09T14:21:13;24.60;99.90
61092;DHT22;46975;51.898;11.444;2022-09-09T14:23:40;25.10;99.90
61092;DHT22;46975;51.898;11.444;2022-09-09T14:26:06;25.10;99.90
61092;DHT22;46975;51.898;11.444;2022-09-09T14:28:31;24.70;99.90
61092;DHT22;46975;51.898;11.444;2022-09-09T14:31:02;24.60;99.90
61092;DHT22;46975;51.898;11.444;2022-09-09T14:33:29;24.80;99.90
61092;DHT22;46975;51.898;11.444;2022-09-09T14:36:00;25.00;99.90
61092;DHT22;46975;51.898;11.444;2022-09-09T14:38:29;25.40;99.90
61092;DHT22;46975;51.898;11.444;2022-09-09T14:40:55;25.50;99.90
61092;DHT22;46975;51.898;11.444;2022-09-09T14:43:21;25.70;99.90
61092;DHT22;46975;51.898;11.444;2022-09-09T14:45:47;25.70;99.90
61092;DHT22;46975;51.898;11.444;2022-09-09T14:48:14;25.40;99.90
61092;DHT22;46975;51.898;11.444;2022-09-09T14:50:40;25.30;99.90
61092;DHT22;46975;51.898;11.444;2022-09-09T14:53:06;25.00;99.90
61092;DHT22;46975;51.898;11.444;2022-09-09T14:55:32;24.80;99.90
61092;DHT22;46975;51.898;11.444;2022-09-09T14:57:58;24.30;99.90
61092;DHT22;46975;51.898;11.444;2022-09-09T15:00:24;24.50;99.90
61092;DHT22;46975;51.898;11.444;2022-09-09T15:02:55;25.10;99.90
61092;DHT22;46975;51.898;11.444;2022-09-09T15:05:21;24.70;99.90
61092;DHT22;46975;51.898;11.444;2022-09-09T15:07:47;24.50;99.90
61092;DHT22;46975;51.898;11.444;2022-09-09T15:10:14;24.50;99.90
61092;DHT22;46975;51.898;11.444;2022-09-09T15:12:40;24.00;99.90
61092;DHT22;46975;51.898;11.444;2022-09-09T15:15:07;23.70;99.90
61092;DHT22;46975;51.898;11.444;2022-09-09T15:17:33;23.50;99.90
61092;DHT22;46975;51.898;11.444;2022-09-09T15:19:59;23.30;99.90
61092;DHT22;46975;51.898;11.444;2022-09-09T15:22:24;23.20;99.90
61092;DHT22;46975;51.898;11.444;2022-09-09T15:24:50;23.10;99.90
61092;DHT22;46975;51.898;11.444;2022-09-09T15:27:17;23.50;99.70
61092;DHT22;46975;51.898;11.444;2022-09-09T15:29:43;24.00;99.50
61092;DHT22;46975;51.898;11.444;2022-09-09T15:32:09;24.20;99.40
61092;DHT22;46975;51.898;11.444;2022-09-09T15:34:35;24.10;99.80
61092;DHT22;46975;51.898;11.444;2022-09-09T15:37:00;23.70;99.90
61092;DHT22;46975;51.898;11.444;2022-09-09T15:39:26;23.30;99.90
61092;DHT22;46975;51.898;11.444;2022-09-09T15:41:51;23.10;99.90
61092;DHT22;46975;51.898;11.444;2022-09-09T15:44:18;22.90;99.90
61092;DHT22;46975;51.898;11.444;2022-09-09T15:46:45;23.20;99.90
61092;DHT22;46975;51.898;11.444;2022-09-09T15:49:11;23.20;99.90
61092;DHT22;46975;51.898;11.444;2022-09-09T15:51:43;23.40;99.90
61092;DHT22;46975;51.898;11.444;2022-09-09T15:54:14;23.50;99.90
61092;DHT22;46975;51.898;11.444;2022-09-09T15:56:42;23.40;99.90
61092;DHT22;46975;51.898;11.444;2022-09-09T15:59:08;23.70;99.90
61092;DHT22;46975;51.898;11.444;2022-09-09T16:01:34;23.90;99.90
61092;DHT22;46975;51.898;11.444;2022-09-09T16:04:00;23.80;99.90
61092;DHT22;46975;51.898;11.444;2022-09-09T16:06:26;23.90;99.90
61092;DHT22;46975;51.898;11.444;2022-09-09T16:08:54;24.00;99.90
61092;DHT22;46975;51.898;11.444;2022-09-09T16:11:23;23.90;99.90
61092;DHT22;46975;51.898;11.444;2022-09-09T16:13:52;23.60;99.90
61092;DHT22;46975;51.898;11.444;2022-09-09T16:16:21;23.40;99.90
61092;DHT22;46975;51.898;11.444;2022-09-09T16:18:49;23.30;99.90
61092;DHT22;46975;51.898;11.444;2022-09-09T16:21:24;23.00;99.90
61092;DHT22;46975;51.898;11.444;2022-09-09T16:23:52;22.90;99.90
61092;DHT22;46975;51.898;11.444;2022-09-09T16:26:19;22.80;99.90
61092;DHT22;46975;51.898;11.444;2022-09-09T16:28:45;22.70;99.90
61092;DHT22;46975;51.898;11.444;2022-09-09T16:31:15;22.60;99.90
61092;DHT22;46975;51.898;11.444;2022-09-09T16:33:41;22.60;99.90
61092;DHT22;46975;51.898;11.444;2022-09-09T16:36:12;22.60;99.90
61092;DHT22;46975;51.898;11.444;2022-09-09T16:38:39;22.50;99.90
61092;DHT22;46975;51.898;11.444;2022-09-09T16:41:06;22.40;99.90
61092;DHT22;46975;51.898;11.444;2022-09-09T16:43:33;22.30;99.90
61092;DHT22;46975;51.898;11.444;2022-09-09T16:45:59;22.20;99.90
61092;DHT22;46975;51.898;11.444;2022-09-09T16:48:31;22.20;99.90
61092;DHT22;46975;51.898;11.444;2022-09-09T16:51:06;22.00;99.90
61092;DHT22;46975;51.898;11.444;2022-09-09T16:53:33;21.90;99.90
61092;DHT22;46975;51.898;11.444;2022-09-09T16:56:08;21.80;99.90
61092;DHT22;46975;51.898;11.444;2022-09-09T16:58:34;21.60;99.90
61092;DHT22;46975;51.898;11.444;2022-09-09T17:01:00;21.50;99.90
61092;DHT22;46975;51.898;11.444;2022-09-09T17:03:27;21.40;99.90
61092;DHT22;46975;51.898;11.444;2022-09-09T17:05:53;21.30;99.90
61092;DHT22;46975;51.898;11.444;2022-09-09T17:08:18;21.20;99.90
61092;DHT22;46975;51.898;11.444;2022-09-09T17:10:44;21.10;99.90
61092;DHT22;46975;51.898;11.444;2022-09-09T17:13:11;21.00;99.90
61092;DHT22;46975;51.898;11.444;2022-09-09T17:15:42;20.90;99.90
61092;DHT22;46975;51.898;11.444;2022-09-09T17:18:11;20.80;99.90
61092;DHT22;46975;51.898;11.444;2022-09-09T17:20:38;20.70;99.90
61092;DHT22;46975;51.898;11.444;2022-09-09T17:23:08;20.60;99.90
61092;DHT22;46975;51.898;11.444;2022-09-09T17:25:35;20.60;99.90
61092;DHT22;46975;51.898;11.444;2022-09-09T17:28:01;20.60;99.90
61092;DHT22;46975;51.898;11.444;2022-09-09T17:30:30;20.50;99.90
61092;DHT22;46975;51.898;11.444;2022-09-09T17:32:59;20.50;99.90
61092;DHT22;46975;51.898;11.444;2022-09-09T17:35:25;20.50;99.90
61092;DHT22;46975;51.898;11.444;2022-09-09T17:37:53;20.50;99.90
61092;DHT22;46975;51.898;11.444;2022-09-09T17:40:19;20.50;99.90
61092;DHT22;46975;51.898;11.444;2022-09-09T17:42:45;20.50;99.90